Bryant, IN (47326)

04:17 AM EDT del 23 Marzo 2017 (GMT -0400)
K9UO | | Change Station

Alt. 940 ft 40.40 °N, 84.98 °W | Updated 11 seconds ago

Sereno
Sereno
25.3 °F
Sembra 25 °F
N
1.0
Vento Variabile Vento da Est
Gusts 5.0 mph

Oggi
Massima -- | Minima -- °F
--% Possibilità di precip.
Ieri
Massima -- | Minima -- °F
Precip. -- in
Pressione 30.48 in
Visibilità 10.0 miglia
Nuvole Sereno
Raffreddamento del vento 25 °F
Punto di rugiada 20 °F
Umidità 79%
Piovosità 0.00 in
Spessore del manto nevoso Non disponibile.
7:37 AM 7:55 PM
Luna calante, 25% visible
METAR KMIE 230753Z AUTO 10007KT 10SM CLR M03/M07 A3046 RMK AO2 SLP321 T10281067
Pressione 30.48 in
Visibilità 10.0 miglia
Nuvole Sereno
Raffreddamento del vento 25 °F
Punto di rugiada 20 °F
Umidità 79%
Piovosità 0.00 in
Spessore del manto nevoso Non disponibile.
7:37 AM 7:55 PM
Luna calante, 25% visible
METAR KMIE 230753Z AUTO 10007KT 10SM CLR M03/M07 A3046 RMK AO2 SLP321 T10281067

Get Severe Weather Alerts

Thanks for signing up!

Be on the lookout for a verification email in your inbox.

You'll start receiving the daily forecast at 8 AM.

×

10-Day Weather Forecast

Almanac

Astronomia

Mar. 23, 2017 Alba Tramonto
Ora attuale
Crepuscolo civile
Crepuscolo nautico
Crepuscolo astronomico
Luna
Estensione della luce visibile
Lunghezza del giorno
Tomorrow will be .
, % of the Moon is Illuminated

Gli estremi di oggi

State Highs State Lows

Community

WunderPhotos

Upload Photos

1,962,540 foto caricate!

WunderBlog® & News

Nearby

Qualità dell'aria

  Qualità dell'aria Indice AQ Inquinante
Not available.

Profondità neve

Stazione Profondità Altitudine

Attività sismica

Città  Distanza Mag. Data & Ora
Minimo Magnitudo Mostrato è 2.5.

Attività sismica

Città  Distanza Mag. Data & Ora
Minimo Magnitudo Mostrato è 2.5.

Temperature delle acque costiere

Località Temperatura

Stations

Stazioni meteo nelle vicinanze

Ubicazione della stazione Temp. Raffreddamento del vento Punto di rugiada Umidità Vento Precip. Alt. Aggiornato Tipo
                   

Watches & Warnings

There are currently no watches in effect.